Fuji Maru — JD2030 — position and weather

sailwx.info

Track history (hours):
 
Tides and Currents Weather Stations Pressure Air Temp Water Temp Dewpoint Dewpoint Depression Visibility Wind Speed Wind Dir Waves Ship Positions

Fuji Maru

Last reported at 2014-Jul-23 15:24 UTC. Time now 2014-Jul-23 16:21 UTC.
Position N 35°39' E 139°46'.

Length 38 m; draft 4.4 m.

Type: Tug. MMSI: 431001102.

Date/timePositionNaut miles runAvg speedWind from/ knotsBaromVisibWave heightAir tempDewpointWater temp
2014-Jul-23 15:24N 35°39' E 139°46'0 0.0
2014-Jul-23 14:30N 35°39' E 139°46'0 0.0
2014-Jul-23 13:27N 35°39' E 139°46'0 0.0
2014-Jul-23 12:33N 35°39' E 139°46'0 0.0
2014-Jul-23 11:33N 35°39' E 139°46'0 0.0
2014-Jul-23 10:33N 35°39' E 139°46'0 0.0
2014-Jul-23 09:30N 35°39' E 139°46'0 0.0
2014-Jul-23 08:33N 35°39' E 139°46'0 0.0
2014-Jul-23 07:30N 35°39' E 139°46'0 0.0
2014-Jul-23 06:24N 35°39' E 139°46'0 0.0
2014-Jul-23 05:33N 35°39' E 139°46'0 0.0
2014-Jul-23 04:33N 35°39' E 139°46'0 0.0
2014-Jul-23 03:24N 35°39' E 139°46'0 0.0
2014-Jul-23 02:33N 35°39' E 139°46'0 0.0
2014-Jul-23 01:30N 35°39' E 139°46'0 0.0
2014-Jul-23 00:30N 35°39' E 139°46'2 1.8
2014-Jul-22 23:33N 35°37' E 139°46'3 3.0
2014-Jul-22 22:33N 35°35' E 139°48'0 0.2
2014-Jul-22 21:33N 35°35' E 139°48'4 4.1
2014-Jul-22 20:28N 35°39' E 139°46'0 0.0
2014-Jul-22 19:31N 35°39' E 139°46'0 0.0
2014-Jul-22 18:31N 35°39' E 139°46'0 0.0
2014-Jul-22 17:31N 35°39' E 139°46'0 0.0
2014-Jul-22 16:31N 35°39' E 139°46'0 0.0
2014-Jul-22 15:25N 35°39' E 139°46'0 0.0
2014-Jul-22 14:31N 35°39' E 139°46'0 0.0
2014-Jul-22 13:28N 35°39' E 139°46'0 0.0
2014-Jul-22 12:31N 35°39' E 139°46'0 0.0
2014-Jul-22 11:28N 35°39' E 139°46'0 0.0
2014-Jul-22 10:28N 35°39' E 139°46'0 0.0
2014-Jul-22 09:31N 35°39' E 139°46'0 0.0
2014-Jul-22 08:28N 35°39' E 139°46'0 0.0
2014-Jul-22 07:31N 35°39' E 139°46'0 0.0
2014-Jul-22 06:28N 35°39' E 139°46'0 0.0
2014-Jul-22 05:31N 35°39' E 139°46'0 0.0
2014-Jul-22 04:31N 35°39' E 139°46'0 0.0
2014-Jul-22 03:28N 35°39' E 139°46'0 0.0
2014-Jul-22 02:31N 35°39' E 139°46'0 0.0
2014-Jul-22 01:31N 35°39' E 139°46'3 2.6
2014-Jul-22 00:33N 35°36' E 139°47'1 1.5
2014-Jul-21 23:33N 35°35' E 139°47'4 3.9
2014-Jul-21 22:31N 35°39' E 139°46'0 0.0
2014-Jul-21 21:31N 35°39' E 139°46'0 0.0
2014-Jul-21 20:28N 35°39' E 139°46'0 0.0
2014-Jul-21 20:16N 35°39' E 139°46'0 0.1
2014-Jul-21 19:31N 35°39' E 139°46'0 0.0
2014-Jul-21 18:31N 35°39' E 139°46'0 0.0
2014-Jul-21 17:31N 35°39' E 139°46'0 0.0
2014-Jul-21 16:28N 35°39' E 139°46'0 0.0
2014-Jul-21 15:28N 35°39' E 139°46'0 0.0
2014-Jul-21 14:31N 35°39' E 139°46'0 0.0
2014-Jul-21 13:31N 35°39' E 139°46'0 0.0
2014-Jul-21 12:31N 35°39' E 139°46'0 0.0
2014-Jul-21 11:31N 35°39' E 139°46'0 0.0
2014-Jul-21 10:16N 35°39' E 139°46'3 3.5
2014-Jul-21 09:29N 35°36' E 139°47'2 2.3
2014-Jul-21 08:33N 35°35' E 139°49'3 2.8
2014-Jul-21 07:34N 35°36' E 139°46'2 2.1
2014-Jul-21 06:23N 35°39' E 139°46'0 0.0
2014-Jul-21 05:32N 35°39' E 139°46'0 0.0
2014-Jul-21 04:23N 35°39' E 139°46'0 0.0
2014-Jul-21 03:26N 35°39' E 139°46'0 0.0
2014-Jul-21 02:29N 35°39' E 139°46'0 0.0
2014-Jul-21 01:29N 35°39' E 139°46'0 0.0
2014-Jul-21 00:26N 35°39' E 139°46'0 0.1
2014-Jul-20 23:29N 35°39' E 139°46'2 2.4
2014-Jul-20 22:28N 35°36' E 139°46'3 3.6
2014-Jul-20 21:33N 35°34' E 139°49'5 5.3
2014-Jul-20 20:33N 35°39' E 139°46'0 0.0
2014-Jul-20 19:30N 35°39' E 139°46'0 0.0
2014-Jul-20 18:33N 35°39' E 139°46'0 0.0
2014-Jul-20 17:33N 35°39' E 139°46'0 0.0
2014-Jul-20 16:30N 35°39' E 139°46'0 0.0
2014-Jul-20 15:30N 35°39' E 139°46'0 0.0
2014-Jul-20 14:30N 35°39' E 139°46'0 0.0
2014-Jul-20 13:33N 35°39' E 139°46'0 0.0
2014-Jul-20 12:33N 35°39' E 139°46'0 0.0
2014-Jul-20 11:24N 35°39' E 139°46'0 0.0
2014-Jul-20 10:30N 35°39' E 139°46'0 0.0
2014-Jul-20 09:30N 35°39' E 139°46'0 0.0
2014-Jul-20 08:33N 35°39' E 139°46'0 0.0
2014-Jul-20 07:30N 35°39' E 139°46'0 0.0
2014-Jul-20 06:33N 35°39' E 139°46'0 0.0
2014-Jul-20 05:33N 35°39' E 139°46'0 0.0
2014-Jul-20 04:27N 35°39' E 139°46'0 0.0
2014-Jul-20 03:33N 35°39' E 139°46'0 0.0
2014-Jul-20 02:30N 35°39' E 139°46'0 0.0
2014-Jul-20 01:33N 35°39' E 139°46'0 0.0
2014-Jul-20 00:33N 35°39' E 139°46'0 0.0
2014-Jul-19 23:30N 35°39' E 139°46'0 0.0
2014-Jul-19 22:15N 35°39' E 139°46'0 0.0
2014-Jul-19 21:33N 35°39' E 139°46'0 0.0
2014-Jul-19 20:33N 35°39' E 139°46'0 0.0
2014-Jul-19 19:30N 35°39' E 139°46'0 0.1
2014-Jul-19 18:33N 35°39' E 139°46'0 0.0
2014-Jul-19 17:33N 35°39' E 139°46'0 0.0
2014-Jul-19 16:33N 35°39' E 139°46'0 0.0
2014-Jul-19 15:30N 35°39' E 139°46'0 0.0
2014-Jul-19 14:33N 35°39' E 139°46'0 0.0
2014-Jul-19 13:30N 35°39' E 139°46'0 0.0
2014-Jul-19 12:24N 35°39' E 139°46'0 0.0
2014-Jul-19 11:18N 35°39' E 139°46'0 0.0
2014-Jul-19 10:24N 35°39' E 139°46'0 0.0
2014-Jul-19 09:33N 35°39' E 139°46'0 0.0
2014-Jul-19 08:27N 35°39' E 139°46'0 0.0
2014-Jul-19 07:33N 35°39' E 139°46'0 0.0
2014-Jul-19 06:30N 35°39' E 139°46'0 0.0
2014-Jul-19 05:30N 35°39' E 139°46'0 0.0
2014-Jul-19 04:27N 35°39' E 139°46'0 0.0
2014-Jul-19 03:33N 35°39' E 139°46'0 0.0
2014-Jul-19 02:33N 35°39' E 139°46'0 0.0
2014-Jul-19 01:30N 35°39' E 139°46'0 0.0
2014-Jul-19 00:33N 35°39' E 139°46'0 0.0
2014-Jul-18 23:33N 35°39' E 139°46'0 0.0
2014-Jul-18 22:30N 35°39' E 139°46'0 0.1
2014-Jul-18 21:33N 35°39' E 139°46'0 0.0
2014-Jul-18 20:30N 35°39' E 139°46'0 0.0
2014-Jul-18 19:33N 35°39' E 139°46'0 0.0
2014-Jul-18 18:27N 35°39' E 139°46'0 0.0
2014-Jul-18 17:33N 35°39' E 139°46'0 0.0
2014-Jul-18 16:27N 35°39' E 139°46'0 0.0
2014-Jul-18 15:33N 35°39' E 139°46'0 0.0
2014-Jul-18 14:30N 35°39' E 139°46'0 0.0
2014-Jul-18 13:33N 35°39' E 139°46'0 0.0
2014-Jul-18 12:24N 35°39' E 139°46'0 0.0
2014-Jul-18 11:33N 35°39' E 139°46'0 0.0
2014-Jul-18 10:33N 35°39' E 139°46'0 0.0
2014-Jul-18 09:33N 35°39' E 139°46'0 0.0
2014-Jul-18 08:30N 35°39' E 139°46'0 0.0
2014-Jul-18 07:33N 35°39' E 139°46'0 0.0
2014-Jul-18 06:33N 35°39' E 139°46'0 0.0
2014-Jul-18 05:33N 35°39' E 139°46'0 0.0
2014-Jul-18 04:33N 35°39' E 139°46'0 0.0
2014-Jul-18 03:33N 35°39' E 139°46'0 0.0
2014-Jul-18 02:33N 35°39' E 139°46'0 0.0
2014-Jul-18 01:33N 35°39' E 139°46'0 0.0
2014-Jul-18 00:33N 35°39' E 139°46'0 0.0
2014-Jul-17 23:33N 35°39' E 139°46'0 0.0
2014-Jul-17 22:33N 35°39' E 139°46'0 0.0
2014-Jul-17 21:33N 35°39' E 139°46'0 0.0
2014-Jul-17 20:33N 35°39' E 139°46'0 0.0
2014-Jul-17 19:33N 35°39' E 139°46'0 0.0
2014-Jul-17 18:30N 35°39' E 139°46'0 0.0
2014-Jul-17 17:33N 35°39' E 139°46'0 0.0
2014-Jul-17 16:33N 35°39' E 139°46'0 0.0
2014-Jul-17 15:33N 35°39' E 139°46'2 1.5
2014-Jul-17 14:30N 35°37' E 139°46'2 1.5
2014-Jul-17 13:30N 35°39' E 139°46'0 0.0
2014-Jul-17 12:33N 35°39' E 139°46'0 0.0
2014-Jul-17 11:33N 35°39' E 139°46'1 1.5
2014-Jul-17 10:33N 35°37' E 139°46'1 1.4
2014-Jul-17 09:31N 35°39' E 139°46'0 0.0
2014-Jul-17 08:28N 35°39' E 139°46'0 0.0
2014-Jul-17 07:19N 35°39' E 139°46'3 4.2
2014-Jul-17 06:33N 35°36' E 139°48'2 1.7
2014-Jul-17 05:33N 35°35' E 139°49'4 3.9
2014-Jul-17 04:33N 35°38' E 139°46'1 1.0
2014-Jul-17 03:29N 35°39' E 139°46'0 0.0
2014-Jul-17 02:26N 35°39' E 139°46'0 0.0
2014-Jul-17 01:32N 35°39' E 139°46'0 0.0
2014-Jul-17 00:14N 35°39' E 139°46'0 0.0
2014-Jul-16 23:32N 35°39' E 139°46'0 0.0
2014-Jul-16 22:26N 35°39' E 139°46'0 0.0
2014-Jul-16 21:32N 35°39' E 139°46'0 0.0
2014-Jul-16 20:32N 35°39' E 139°46'0 0.0
2014-Jul-16 19:32N 35°39' E 139°46'0 0.0
2014-Jul-16 18:32N 35°39' E 139°46'0 0.0
2014-Jul-16 17:29N 35°39' E 139°46'0 0.0
2014-Jul-16 16:32N 35°39' E 139°46'0 0.0
2014-Jul-16 15:32N 35°39' E 139°46'0 0.0
2014-Jul-16 14:26N 35°39' E 139°46'0 0.0
2014-Jul-16 13:32N 35°39' E 139°46'0 0.0
2014-Jul-16 12:26N 35°39' E 139°46'0 0.0
2014-Jul-16 11:26N 35°39' E 139°46'0 0.0
2014-Jul-16 10:26N 35°39' E 139°46'0 0.0
2014-Jul-16 09:32N 35°39' E 139°46'0 0.0
2014-Jul-16 08:26N 35°39' E 139°46'0 0.0
2014-Jul-16 07:26N 35°39' E 139°46'0 0.0
2014-Jul-16 06:26N 35°39' E 139°46'0 0.0
2014-Jul-16 05:32N 35°39' E 139°46'0 0.0
2014-Jul-16 04:26N 35°39' E 139°46'0 0.1
2014-Jul-16 03:32N 35°39' E 139°46'0 0.0
2014-Jul-16 02:32N 35°39' E 139°46'0 0.0
2014-Jul-16 01:32N 35°39' E 139°46'0 0.0
2014-Jul-16 00:23N 35°39' E 139°46'0 0.0
2014-Jul-15 23:32N 35°39' E 139°46'0 0.0
2014-Jul-15 22:29N 35°39' E 139°46'0 0.0
2014-Jul-15 21:32N 35°39' E 139°46'0 0.0
2014-Jul-15 20:32N 35°39' E 139°46'0 0.0
2014-Jul-15 19:32N 35°39' E 139°46'0 0.0
2014-Jul-15 18:29N 35°39' E 139°46'0 0.0
2014-Jul-15 17:26N 35°39' E 139°46'0 0.1
2014-Jul-15 16:32N 35°39' E 139°46'0 0.0
2014-Jul-15 15:32N 35°39' E 139°46'3 3.5
2014-Jul-15 14:33N 35°36' E 139°47'1 0.5
2014-Jul-15 13:29N 35°36' E 139°46'1 1.1
2014-Jul-15 12:33N 35°37' E 139°47'2 1.7
2014-Jul-15 11:28N 35°38' E 139°46'0 0.0
2014-Jul-15 10:31N 35°38' E 139°46'2 2.6
2014-Jul-15 09:33N 35°36' E 139°47'0 0.4
2014-Jul-15 08:33N 35°36' E 139°47'3 3.3
2014-Jul-15 07:33N 35°39' E 139°46'0 0.0
2014-Jul-15 06:33N 35°39' E 139°46'0 0.0
2014-Jul-15 05:33N 35°39' E 139°46'0 0.0
2014-Jul-15 04:21N 35°39' E 139°46'0 0.0
2014-Jul-15 03:27N 35°39' E 139°46'0 0.0
2014-Jul-15 02:33N 35°39' E 139°46'0 0.0
2014-Jul-15 01:33N 35°39' E 139°46'0 0.0
2014-Jul-15 00:27N 35°39' E 139°46'0 0.0
2014-Jul-14 23:30N 35°39' E 139°46'0 0.0
2014-Jul-14 22:33N 35°39' E 139°46'0 0.0
2014-Jul-14 21:33N 35°39' E 139°46'2 2.4
2014-Jul-14 20:34N 35°37' E 139°47'2 2.4
2014-Jul-14 19:33N 35°39' E 139°46'0 0.0
2014-Jul-14 18:33N 35°39' E 139°46'0 0.0
2014-Jul-14 17:33N 35°39' E 139°46'0 0.0
2014-Jul-14 16:33N 35°39' E 139°46'0 0.0
2014-Jul-14 15:30N 35°39' E 139°46'0 0.0
2014-Jul-14 14:30N 35°39' E 139°46'0 0.0
2014-Jul-14 13:30N 35°39' E 139°46'0 0.0
2014-Jul-14 12:30N 35°39' E 139°46'0 0.0
2014-Jul-14 11:33N 35°39' E 139°46'0 0.0
2014-Jul-14 10:30N 35°39' E 139°46'3 2.6
2014-Jul-14 09:30N 35°36' E 139°46'3 3.6
2014-Jul-14 08:33N 35°34' E 139°49'6 5.6
2014-Jul-14 07:33N 35°39' E 139°46'0 0.1
2014-Jul-14 06:33N 35°39' E 139°46'0 0.1
2014-Jul-14 05:25N 35°39' E 139°46'0 0.0
2014-Jul-14 04:31N 35°39' E 139°46'0 0.0
2014-Jul-14 03:28N 35°39' E 139°46'0 0.0
2014-Jul-14 02:19N 35°39' E 139°46'0 0.0
2014-Jul-14 01:31N 35°39' E 139°46'0 0.0
2014-Jul-14 00:31N 35°39' E 139°46'0 0.0
2014-Jul-13 23:31N 35°39' E 139°46'0 0.0
2014-Jul-13 22:31N 35°39' E 139°46'0 0.0
2014-Jul-13 21:22N 35°39' E 139°46'0 0.0
2014-Jul-13 20:31N 35°39' E 139°46'0 0.0
2014-Jul-13 19:19N 35°39' E 139°46'0 0.0
2014-Jul-13 18:31N 35°39' E 139°46'0 0.0
2014-Jul-13 17:25N 35°39' E 139°46'0 0.1
2014-Jul-13 16:25N 35°39' E 139°46'0 0.1
2014-Jul-13 15:31N 35°39' E 139°46'  
Track history (hours):
 
Tides and Currents Weather Stations Pressure Air Temp Water Temp Dewpoint Dewpoint Depression Visibility Wind Speed Wind Dir Waves Ship Positions

Fuji Maru

Last reported at 2014-Jul-23 15:24 UTC. Time now 2014-Jul-23 16:21 UTC.
Position N 35°39' E 139°46'.

Length 38 m; draft 4.4 m.

Type: Tug. MMSI: 431001102.

Date/timePositionNaut miles runAvg speedWind from/ knotsBaromVisibWave heightAir tempDewpointWater temp
2014-Jul-23 15:24N 35°39' E 139°46'0 0.0
2014-Jul-23 14:30N 35°39' E 139°46'0 0.0
2014-Jul-23 13:27N 35°39' E 139°46'0 0.0
2014-Jul-23 12:33N 35°39' E 139°46'0 0.0
2014-Jul-23 11:33N 35°39' E 139°46'0 0.0
2014-Jul-23 10:33N 35°39' E 139°46'0 0.0
2014-Jul-23 09:30N 35°39' E 139°46'0 0.0
2014-Jul-23 08:33N 35°39' E 139°46'0 0.0
2014-Jul-23 07:30N 35°39' E 139°46'0 0.0
2014-Jul-23 06:24N 35°39' E 139°46'0 0.0
2014-Jul-23 05:33N 35°39' E 139°46'0 0.0
2014-Jul-23 04:33N 35°39' E 139°46'0 0.0
2014-Jul-23 03:24N 35°39' E 139°46'0 0.0
2014-Jul-23 02:33N 35°39' E 139°46'0 0.0
2014-Jul-23 01:30N 35°39' E 139°46'0 0.0
2014-Jul-23 00:30N 35°39' E 139°46'2 1.8
2014-Jul-22 23:33N 35°37' E 139°46'3 3.0
2014-Jul-22 22:33N 35°35' E 139°48'0 0.2
2014-Jul-22 21:33N 35°35' E 139°48'4 4.1
2014-Jul-22 20:28N 35°39' E 139°46'0 0.0
2014-Jul-22 19:31N 35°39' E 139°46'0 0.0
2014-Jul-22 18:31N 35°39' E 139°46'0 0.0
2014-Jul-22 17:31N 35°39' E 139°46'0 0.0
2014-Jul-22 16:31N 35°39' E 139°46'0 0.0
2014-Jul-22 15:25N 35°39' E 139°46'0 0.0
2014-Jul-22 14:31N 35°39' E 139°46'0 0.0
2014-Jul-22 13:28N 35°39' E 139°46'0 0.0
2014-Jul-22 12:31N 35°39' E 139°46'0 0.0
2014-Jul-22 11:28N 35°39' E 139°46'0 0.0
2014-Jul-22 10:28N 35°39' E 139°46'0 0.0
2014-Jul-22 09:31N 35°39' E 139°46'0 0.0
2014-Jul-22 08:28N 35°39' E 139°46'0 0.0
2014-Jul-22 07:31N 35°39' E 139°46'0 0.0
2014-Jul-22 06:28N 35°39' E 139°46'0 0.0
2014-Jul-22 05:31N 35°39' E 139°46'0 0.0
2014-Jul-22 04:31N 35°39' E 139°46'0 0.0
2014-Jul-22 03:28N 35°39' E 139°46'0 0.0
2014-Jul-22 02:31N 35°39' E 139°46'0 0.0
2014-Jul-22 01:31N 35°39' E 139°46'3 2.6
2014-Jul-22 00:33N 35°36' E 139°47'1 1.5
2014-Jul-21 23:33N 35°35' E 139°47'4 3.9
2014-Jul-21 22:31N 35°39' E 139°46'0 0.0
2014-Jul-21 21:31N 35°39' E 139°46'0 0.0
2014-Jul-21 20:28N 35°39' E 139°46'0 0.0
2014-Jul-21 20:16N 35°39' E 139°46'0 0.1
2014-Jul-21 19:31N 35°39' E 139°46'0 0.0
2014-Jul-21 18:31N 35°39' E 139°46'0 0.0
2014-Jul-21 17:31N 35°39' E 139°46'0 0.0
2014-Jul-21 16:28N 35°39' E 139°46'0 0.0
2014-Jul-21 15:28N 35°39' E 139°46'0 0.0
2014-Jul-21 14:31N 35°39' E 139°46'0 0.0
2014-Jul-21 13:31N 35°39' E 139°46'0 0.0
2014-Jul-21 12:31N 35°39' E 139°46'0 0.0
2014-Jul-21 11:31N 35°39' E 139°46'0 0.0
2014-Jul-21 10:16N 35°39' E 139°46'3 3.5
2014-Jul-21 09:29N 35°36' E 139°47'2 2.3
2014-Jul-21 08:33N 35°35' E 139°49'3 2.8
2014-Jul-21 07:34N 35°36' E 139°46'2 2.1
2014-Jul-21 06:23N 35°39' E 139°46'0 0.0
2014-Jul-21 05:32N 35°39' E 139°46'0 0.0
2014-Jul-21 04:23N 35°39' E 139°46'0 0.0
2014-Jul-21 03:26N 35°39' E 139°46'0 0.0
2014-Jul-21 02:29N 35°39' E 139°46'0 0.0
2014-Jul-21 01:29N 35°39' E 139°46'0 0.0
2014-Jul-21 00:26N 35°39' E 139°46'0 0.1
2014-Jul-20 23:29N 35°39' E 139°46'2 2.4
2014-Jul-20 22:28N 35°36' E 139°46'3 3.6
2014-Jul-20 21:33N 35°34' E 139°49'5 5.3
2014-Jul-20 20:33N 35°39' E 139°46'0 0.0
2014-Jul-20 19:30N 35°39' E 139°46'0 0.0
2014-Jul-20 18:33N 35°39' E 139°46'0 0.0
2014-Jul-20 17:33N 35°39' E 139°46'0 0.0
2014-Jul-20 16:30N 35°39' E 139°46'0 0.0
2014-Jul-20 15:30N 35°39' E 139°46'0 0.0
2014-Jul-20 14:30N 35°39' E 139°46'0 0.0
2014-Jul-20 13:33N 35°39' E 139°46'0 0.0
2014-Jul-20 12:33N 35°39' E 139°46'0 0.0
2014-Jul-20 11:24N 35°39' E 139°46'0 0.0
2014-Jul-20 10:30N 35°39' E 139°46'0 0.0
2014-Jul-20 09:30N 35°39' E 139°46'0 0.0
2014-Jul-20 08:33N 35°39' E 139°46'0 0.0
2014-Jul-20 07:30N 35°39' E 139°46'0 0.0
2014-Jul-20 06:33N 35°39' E 139°46'0 0.0
2014-Jul-20 05:33N 35°39' E 139°46'0 0.0
2014-Jul-20 04:27N 35°39' E 139°46'0 0.0
2014-Jul-20 03:33N 35°39' E 139°46'0 0.0
2014-Jul-20 02:30N 35°39' E 139°46'0 0.0
2014-Jul-20 01:33N 35°39' E 139°46'0 0.0
2014-Jul-20 00:33N 35°39' E 139°46'0 0.0
2014-Jul-19 23:30N 35°39' E 139°46'0 0.0
2014-Jul-19 22:15N 35°39' E 139°46'0 0.0
2014-Jul-19 21:33N 35°39' E 139°46'0 0.0
2014-Jul-19 20:33N 35°39' E 139°46'0 0.0
2014-Jul-19 19:30N 35°39' E 139°46'0 0.1
2014-Jul-19 18:33N 35°39' E 139°46'0 0.0
2014-Jul-19 17:33N 35°39' E 139°46'0 0.0
2014-Jul-19 16:33N 35°39' E 139°46'0 0.0
2014-Jul-19 15:30N 35°39' E 139°46'0 0.0
2014-Jul-19 14:33N 35°39' E 139°46'0 0.0
2014-Jul-19 13:30N 35°39' E 139°46'0 0.0
2014-Jul-19 12:24N 35°39' E 139°46'0 0.0
2014-Jul-19 11:18N 35°39' E 139°46'0 0.0
2014-Jul-19 10:24N 35°39' E 139°46'0 0.0
2014-Jul-19 09:33N 35°39' E 139°46'0 0.0
2014-Jul-19 08:27N 35°39' E 139°46'0 0.0
2014-Jul-19 07:33N 35°39' E 139°46'0 0.0
2014-Jul-19 06:30N 35°39' E 139°46'0 0.0
2014-Jul-19 05:30N 35°39' E 139°46'0 0.0
2014-Jul-19 04:27N 35°39' E 139°46'0 0.0
2014-Jul-19 03:33N 35°39' E 139°46'0 0.0
2014-Jul-19 02:33N 35°39' E 139°46'0 0.0
2014-Jul-19 01:30N 35°39' E 139°46'0 0.0
2014-Jul-19 00:33N 35°39' E 139°46'0 0.0
2014-Jul-18 23:33N 35°39' E 139°46'0 0.0
2014-Jul-18 22:30N 35°39' E 139°46'0 0.1
2014-Jul-18 21:33N 35°39' E 139°46'0 0.0
2014-Jul-18 20:30N 35°39' E 139°46'0 0.0
2014-Jul-18 19:33N 35°39' E 139°46'0 0.0
2014-Jul-18 18:27N 35°39' E 139°46'0 0.0
2014-Jul-18 17:33N 35°39' E 139°46'0 0.0
2014-Jul-18 16:27N 35°39' E 139°46'0 0.0
2014-Jul-18 15:33N 35°39' E 139°46'0 0.0
2014-Jul-18 14:30N 35°39' E 139°46'0 0.0
2014-Jul-18 13:33N 35°39' E 139°46'0 0.0
2014-Jul-18 12:24N 35°39' E 139°46'0 0.0
2014-Jul-18 11:33N 35°39' E 139°46'0 0.0
2014-Jul-18 10:33N 35°39' E 139°46'0 0.0
2014-Jul-18 09:33N 35°39' E 139°46'0 0.0
2014-Jul-18 08:30N 35°39' E 139°46'0 0.0
2014-Jul-18 07:33N 35°39' E 139°46'0 0.0
2014-Jul-18 06:33N 35°39' E 139°46'0 0.0
2014-Jul-18 05:33N 35°39' E 139°46'0 0.0
2014-Jul-18 04:33N 35°39' E 139°46'0 0.0
2014-Jul-18 03:33N 35°39' E 139°46'0 0.0
2014-Jul-18 02:33N 35°39' E 139°46'0 0.0
2014-Jul-18 01:33N 35°39' E 139°46'0 0.0
2014-Jul-18 00:33N 35°39' E 139°46'0 0.0
2014-Jul-17 23:33N 35°39' E 139°46'0 0.0
2014-Jul-17 22:33N 35°39' E 139°46'0 0.0
2014-Jul-17 21:33N 35°39' E 139°46'0 0.0
2014-Jul-17 20:33N 35°39' E 139°46'0 0.0
2014-Jul-17 19:33N 35°39' E 139°46'0 0.0
2014-Jul-17 18:30N 35°39' E 139°46'0 0.0
2014-Jul-17 17:33N 35°39' E 139°46'0 0.0
2014-Jul-17 16:33N 35°39' E 139°46'0 0.0
2014-Jul-17 15:33N 35°39' E 139°46'2 1.5
2014-Jul-17 14:30N 35°37' E 139°46'2 1.5
2014-Jul-17 13:30N 35°39' E 139°46'0 0.0
2014-Jul-17 12:33N 35°39' E 139°46'0 0.0
2014-Jul-17 11:33N 35°39' E 139°46'1 1.5
2014-Jul-17 10:33N 35°37' E 139°46'1 1.4
2014-Jul-17 09:31N 35°39' E 139°46'0 0.0
2014-Jul-17 08:28N 35°39' E 139°46'0 0.0
2014-Jul-17 07:19N 35°39' E 139°46'3 4.2
2014-Jul-17 06:33N 35°36' E 139°48'2 1.7
2014-Jul-17 05:33N 35°35' E 139°49'4 3.9
2014-Jul-17 04:33N 35°38' E 139°46'1 1.0
2014-Jul-17 03:29N 35°39' E 139°46'0 0.0
2014-Jul-17 02:26N 35°39' E 139°46'0 0.0
2014-Jul-17 01:32N 35°39' E 139°46'0 0.0
2014-Jul-17 00:14N 35°39' E 139°46'0 0.0
2014-Jul-16 23:32N 35°39' E 139°46'0 0.0
2014-Jul-16 22:26N 35°39' E 139°46'0 0.0
2014-Jul-16 21:32N 35°39' E 139°46'0 0.0
2014-Jul-16 20:32N 35°39' E 139°46'0 0.0
2014-Jul-16 19:32N 35°39' E 139°46'0 0.0
2014-Jul-16 18:32N 35°39' E 139°46'0 0.0
2014-Jul-16 17:29N 35°39' E 139°46'0 0.0
2014-Jul-16 16:32N 35°39' E 139°46'0 0.0
2014-Jul-16 15:32N 35°39' E 139°46'0 0.0
2014-Jul-16 14:26N 35°39' E 139°46'0 0.0
2014-Jul-16 13:32N 35°39' E 139°46'0 0.0
2014-Jul-16 12:26N 35°39' E 139°46'0 0.0
2014-Jul-16 11:26N 35°39' E 139°46'0 0.0
2014-Jul-16 10:26N 35°39' E 139°46'0 0.0
2014-Jul-16 09:32N 35°39' E 139°46'0 0.0
2014-Jul-16 08:26N 35°39' E 139°46'0 0.0
2014-Jul-16 07:26N 35°39' E 139°46'0 0.0
2014-Jul-16 06:26N 35°39' E 139°46'0 0.0
2014-Jul-16 05:32N 35°39' E 139°46'0 0.0
2014-Jul-16 04:26N 35°39' E 139°46'0 0.1
2014-Jul-16 03:32N 35°39' E 139°46'0 0.0
2014-Jul-16 02:32N 35°39' E 139°46'0 0.0
2014-Jul-16 01:32N 35°39' E 139°46'0 0.0
2014-Jul-16 00:23N 35°39' E 139°46'0 0.0
2014-Jul-15 23:32N 35°39' E 139°46'0 0.0
2014-Jul-15 22:29N 35°39' E 139°46'0 0.0
2014-Jul-15 21:32N 35°39' E 139°46'0 0.0
2014-Jul-15 20:32N 35°39' E 139°46'0 0.0
2014-Jul-15 19:32N 35°39' E 139°46'0 0.0
2014-Jul-15 18:29N 35°39' E 139°46'0 0.0
2014-Jul-15 17:26N 35°39' E 139°46'0 0.1
2014-Jul-15 16:32N 35°39' E 139°46'0 0.0
2014-Jul-15 15:32N 35°39' E 139°46'3 3.5
2014-Jul-15 14:33N 35°36' E 139°47'1 0.5
2014-Jul-15 13:29N 35°36' E 139°46'1 1.1
2014-Jul-15 12:33N 35°37' E 139°47'2 1.7
2014-Jul-15 11:28N 35°38' E 139°46'0 0.0
2014-Jul-15 10:31N 35°38' E 139°46'2 2.6
2014-Jul-15 09:33N 35°36' E 139°47'0 0.4
2014-Jul-15 08:33N 35°36' E 139°47'3 3.3
2014-Jul-15 07:33N 35°39' E 139°46'0 0.0
2014-Jul-15 06:33N 35°39' E 139°46'0 0.0
2014-Jul-15 05:33N 35°39' E 139°46'0 0.0
2014-Jul-15 04:21N 35°39' E 139°46'0 0.0
2014-Jul-15 03:27N 35°39' E 139°46'0 0.0
2014-Jul-15 02:33N 35°39' E 139°46'0 0.0
2014-Jul-15 01:33N 35°39' E 139°46'0 0.0
2014-Jul-15 00:27N 35°39' E 139°46'0 0.0
2014-Jul-14 23:30N 35°39' E 139°46'0 0.0
2014-Jul-14 22:33N 35°39' E 139°46'0 0.0
2014-Jul-14 21:33N 35°39' E 139°46'2 2.4
2014-Jul-14 20:34N 35°37' E 139°47'2 2.4
2014-Jul-14 19:33N 35°39' E 139°46'0 0.0
2014-Jul-14 18:33N 35°39' E 139°46'0 0.0
2014-Jul-14 17:33N 35°39' E 139°46'0 0.0
2014-Jul-14 16:33N 35°39' E 139°46'0 0.0
2014-Jul-14 15:30N 35°39' E 139°46'0 0.0
2014-Jul-14 14:30N 35°39' E 139°46'0 0.0
2014-Jul-14 13:30N 35°39' E 139°46'0 0.0
2014-Jul-14 12:30N 35°39' E 139°46'0 0.0
2014-Jul-14 11:33N 35°39' E 139°46'0 0.0
2014-Jul-14 10:30N 35°39' E 139°46'3 2.6
2014-Jul-14 09:30N 35°36' E 139°46'3 3.6
2014-Jul-14 08:33N 35°34' E 139°49'6 5.6
2014-Jul-14 07:33N 35°39' E 139°46'0 0.1
2014-Jul-14 06:33N 35°39' E 139°46'0 0.1
2014-Jul-14 05:25N 35°39' E 139°46'0 0.0
2014-Jul-14 04:31N 35°39' E 139°46'0 0.0
2014-Jul-14 03:28N 35°39' E 139°46'0 0.0
2014-Jul-14 02:19N 35°39' E 139°46'0 0.0
2014-Jul-14 01:31N 35°39' E 139°46'0 0.0
2014-Jul-14 00:31N 35°39' E 139°46'0 0.0
2014-Jul-13 23:31N 35°39' E 139°46'0 0.0
2014-Jul-13 22:31N 35°39' E 139°46'0 0.0
2014-Jul-13 21:22N 35°39' E 139°46'0 0.0
2014-Jul-13 20:31N 35°39' E 139°46'0 0.0
2014-Jul-13 19:19N 35°39' E 139°46'0 0.0
2014-Jul-13 18:31N 35°39' E 139°46'0 0.0
2014-Jul-13 17:25N 35°39' E 139°46'0 0.1
2014-Jul-13 16:25N 35°39' E 139°46'0 0.1
2014-Jul-13 15:31N 35°39' E 139°46'  

Dump ship's entire track history